Time;durP1;ratioP1;P1;durP2;ratioP2;P2;SDS_P1;SDS_P2;PMS_P1;PMS_P2;Temp;Humidity;BMP_temperature;BMP_pressure;BME280_temperature;BME280_humidity;BME280_pressure;Samples;Min_cycle;Max_cycle;Signal;HPM_P1;HPM_P2
2023/08/02 00:00:07;;;;;;;2.43;1.63;;;24.90;54.20;;;;;;5013983;28;20208;-72
2023/08/02 00:02:33;;;;;;;2.50;1.60;;;24.90;54.20;;;;;;5014122;28;20546;-72
2023/08/02 00:04:58;;;;;;;2.70;1.50;;;24.90;54.20;;;;;;5013718;28;20458;-72
2023/08/02 00:07:24;;;;;;;2.60;1.57;;;24.90;54.20;;;;;;5013839;28;20180;-72
2023/08/02 00:09:49;;;;;;;2.10;1.53;;;24.90;54.20;;;;;;5013750;28;20172;-72
2023/08/02 00:12:15;;;;;;;2.77;1.50;;;24.90;54.20;;;;;;5013745;28;20173;-72
2023/08/02 00:14:40;;;;;;;3.50;2.23;;;24.90;54.20;;;;;;5013578;28;20196;-72
2023/08/02 00:17:06;;;;;;;2.73;1.50;;;24.90;54.20;;;;;;5013814;28;20715;-72
2023/08/02 00:19:32;;;;;;;2.27;1.70;;;24.90;54.20;;;;;;5013601;28;20177;-72
2023/08/02 00:21:58;;;;;;;1.53;1.40;;;24.80;54.10;;;;;;4995878;28;20295;-72
2023/08/02 00:24:23;;;;;;;2.13;1.80;;;24.90;54.10;;;;;;5013351;28;20251;-72
2023/08/02 00:26:49;;;;;;;1.90;1.60;;;24.80;54.00;;;;;;5013275;28;20612;-71
2023/08/02 00:29:14;;;;;;;1.57;1.47;;;24.80;54.00;;;;;;5013672;28;20176;-72
2023/08/02 00:31:40;;;;;;;3.97;2.43;;;24.80;54.00;;;;;;5013450;28;20204;-71
2023/08/02 00:34:05;;;;;;;2.80;2.13;;;24.80;54.10;;;;;;5013172;28;20530;-72
2023/08/02 00:36:31;;;;;;;1.63;1.30;;;24.80;54.10;;;;;;5013262;28;20180;-72
2023/08/02 00:38:56;;;;;;;1.60;1.50;;;24.80;54.10;;;;;;5013485;28;20184;-72
2023/08/02 00:41:22;;;;;;;1.73;1.47;;;24.80;54.10;;;;;;5013147;28;20545;-72
2023/08/02 00:43:48;;;;;;;3.30;1.67;;;24.80;54.10;;;;;;5013152;28;20184;-72
2023/08/02 00:46:17;;;;;;;1.50;1.30;;;24.80;54.10;;;;;;5013032;28;20214;-72
2023/08/02 00:48:43;;;;;;;2.07;1.63;;;24.80;54.10;;;;;;5013228;28;20449;-72
2023/08/02 00:51:16;;;;;;;1.67;1.37;;;24.80;54.10;;;;;;5013084;28;20447;-71
2023/08/02 00:53:43;;;;;;;1.80;1.50;;;24.80;54.10;;;;;;5012989;28;20387;-72
2023/08/02 00:56:10;;;;;;;2.80;1.90;;;24.80;54.10;;;;;;5012870;28;20971;-71
2023/08/02 00:58:35;;;;;;;1.90;1.40;;;24.80;54.10;;;;;;5013039;28;20415;-72
2023/08/02 01:01:07;;;;;;;2.37;1.67;;;24.80;54.10;;;;;;5013001;28;20419;-72
2023/08/02 01:03:37;;;;;;;2.77;1.60;;;24.80;54.10;;;;;;5012866;28;20161;-70
2023/08/02 01:06:20;;;;;;;1.83;1.60;;;24.80;54.10;;;;;;5012729;28;20955;-72
2023/08/02 01:08:51;;;;;;;2.97;1.80;;;24.80;54.10;;;;;;5012725;28;20454;-70
2023/08/02 01:11:24;;;;;;;2.83;1.53;;;24.80;54.10;;;;;;5012801;28;20400;-71
2023/08/02 01:13:51;;;;;;;2.73;1.60;;;24.80;54.10;;;;;;5012644;28;20408;-71
2023/08/02 01:16:19;;;;;;;2.70;1.57;;;24.80;54.10;;;;;;5012616;28;20426;-73
2023/08/02 01:18:44;;;;;;;1.60;1.50;;;24.80;54.10;;;;;;5012545;28;20424;-72
2023/08/02 01:21:10;;;;;;;1.60;1.30;;;24.80;54.10;;;;;;5012768;28;20422;-72
2023/08/02 01:23:36;;;;;;;4.07;1.93;;;24.80;54.10;;;;;;5012460;28;20656;-72
2023/08/02 01:26:04;;;;;;;4.40;2.20;;;24.80;54.10;;;;;;4994733;28;20200;-73
2023/08/02 01:28:35;;;;;;;2.20;1.77;;;24.80;54.00;;;;;;5012415;28;20427;-71
2023/08/02 01:31:01;;;;;;;5.10;2.00;;;24.80;54.00;;;;;;5012394;28;20396;-72
2023/08/02 01:33:28;;;;;;;2.80;2.30;;;24.80;53.90;;;;;;5012539;28;20426;-72
2023/08/02 01:35:53;;;;;;;2.50;1.90;;;24.80;53.90;;;;;;5012124;28;20874;-72
2023/08/02 01:38:19;;;;;;;2.53;1.87;;;24.80;53.80;;;;;;5012191;28;20443;-72
2023/08/02 01:40:45;;;;;;;4.83;2.20;;;24.70;53.80;;;;;;5012168;28;20180;-72
2023/08/02 01:43:10;;;;;;;1.87;1.40;;;24.70;53.70;;;;;;5012336;28;20183;-72
2023/08/02 01:45:36;;;;;;;2.70;1.80;;;24.70;53.70;;;;;;5011715;28;20208;-72
2023/08/02 01:48:02;;;;;;;3.20;1.67;;;24.70;53.80;;;;;;4994012;28;20548;-72
2023/08/02 01:50:27;;;;;;;2.50;1.73;;;24.70;53.80;;;;;;5012027;28;20263;-71
2023/08/02 01:52:53;;;;;;;4.33;2.13;;;24.70;53.70;;;;;;5011967;28;20272;-72
2023/08/02 01:55:19;;;;;;;2.67;1.73;;;24.70;53.80;;;;;;5012063;28;20226;-72
2023/08/02 01:57:44;;;;;;;2.30;1.70;;;24.70;53.80;;;;;;5011947;28;20176;-72
2023/08/02 02:00:12;;;;;;;2.63;1.60;;;24.60;53.70;;;;;;5011888;28;20184;-71
2023/08/02 02:02:37;;;;;;;4.73;2.67;;;24.60;53.70;;;;;;5011853;28;20238;-72
2023/08/02 02:05:03;;;;;;;2.23;1.77;;;24.60;53.70;;;;;;4993988;28;20998;-72
2023/08/02 02:07:29;;;;;;;1.83;1.50;;;24.70;53.80;;;;;;5011873;28;20172;-73
2023/08/02 02:09:54;;;;;;;2.47;1.90;;;24.60;53.70;;;;;;5011765;28;20234;-72
2023/08/02 02:12:20;;;;;;;3.00;1.83;;;24.60;53.70;;;;;;5011789;28;20168;-72
2023/08/02 02:14:45;;;;;;;2.10;1.80;;;24.60;53.80;;;;;;4994197;28;20382;-72
2023/08/02 02:17:11;;;;;;;2.80;1.90;;;24.60;53.70;;;;;;5011725;28;20168;-73
2023/08/02 02:19:37;;;;;;;2.03;1.77;;;24.60;53.70;;;;;;5011742;28;20208;-73
2023/08/02 02:22:03;;;;;;;3.07;2.17;;;24.60;53.80;;;;;;5011833;28;20192;-70
2023/08/02 02:24:29;;;;;;;2.40;1.77;;;24.60;53.80;;;;;;5011668;28;20435;-73
2023/08/02 02:26:54;;;;;;;2.83;2.27;;;24.60;53.80;;;;;;5011618;28;20238;-72
2023/08/02 02:29:20;;;;;;;2.37;1.97;;;24.60;53.80;;;;;;4994067;28;20262;-72
2023/08/02 02:31:45;;;;;;;3.07;1.80;;;24.60;53.80;;;;;;5011739;28;20180;-71
2023/08/02 02:34:11;;;;;;;2.80;2.00;;;24.60;53.90;;;;;;5011545;28;20199;-72
2023/08/02 02:36:38;;;;;;;2.30;1.87;;;24.60;53.90;;;;;;5011699;28;20172;-71
2023/08/02 02:39:04;;;;;;;3.93;1.90;;;24.60;53.90;;;;;;5011621;28;20183;-72
2023/08/02 02:41:29;;;;;;;2.20;2.00;;;24.60;53.90;;;;;;5011582;28;20415;-70
2023/08/02 02:43:55;;;;;;;2.40;1.53;;;24.60;53.90;;;;;;5011574;28;20442;-72
2023/08/02 02:46:21;;;;;;;3.87;1.80;;;24.60;53.90;;;;;;5011403;28;20192;-72
2023/08/02 02:48:46;;;;;;;4.37;2.30;;;24.60;53.90;;;;;;5011575;28;20219;-72
2023/08/02 02:51:12;;;;;;;2.23;1.53;;;24.60;53.90;;;;;;5011448;28;20244;-71
2023/08/02 02:53:37;;;;;;;1.83;1.73;;;24.60;53.80;;;;;;5011316;28;20200;-72
2023/08/02 02:56:03;;;;;;;5.30;1.90;;;24.60;53.90;;;;;;4993736;28;20280;-72
2023/08/02 02:58:29;;;;;;;2.77;1.60;;;24.60;53.80;;;;;;5013722;28;20176;-72
2023/08/02 03:00:56;;;;;;;2.27;2.00;;;24.60;53.90;;;;;;5015444;28;20210;-72
2023/08/02 03:03:22;;;;;;;2.50;1.97;;;24.60;53.90;;;;;;5015005;28;20611;-72
2023/08/02 03:05:47;;;;;;;2.53;1.93;;;24.60;53.90;;;;;;5015103;28;20509;-72
2023/08/02 03:08:13;;;;;;;2.67;1.60;;;24.60;53.90;;;;;;5015005;28;20211;-72
2023/08/02 03:10:38;;;;;;;2.20;1.90;;;24.60;53.90;;;;;;5014937;28;20169;-72
2023/08/02 03:13:04;;;;;;;2.00;1.57;;;24.60;53.90;;;;;;5014810;28;20176;-71
2023/08/02 03:15:29;;;;;;;2.20;1.60;;;24.60;53.90;;;;;;4997122;28;20736;-72
2023/08/02 03:17:55;;;;;;;2.57;1.90;;;24.60;53.90;;;;;;5014805;28;20180;-72
2023/08/02 03:20:21;;;;;;;2.60;1.67;;;24.60;53.90;;;;;;5014684;28;20176;-72
2023/08/02 03:22:46;;;;;;;2.80;1.97;;;24.60;53.90;;;;;;4997025;28;20195;-71
2023/08/02 03:25:12;;;;;;;2.90;1.73;;;24.60;54.40;;;;;;5014482;28;20200;-72
2023/08/02 03:27:37;;;;;;;2.87;1.83;;;24.60;53.90;;;;;;5014614;28;20255;-72
2023/08/02 03:30:03;;;;;;;2.40;1.50;;;24.60;54.00;;;;;;5014603;28;20172;-72
2023/08/02 03:32:29;;;;;;;3.43;1.87;;;24.60;53.90;;;;;;5014553;28;20173;-72
2023/08/02 03:34:55;;;;;;;3.50;1.67;;;24.60;53.90;;;;;;5006509;28;20205;-72
2023/08/02 03:37:20;;;;;;;1.80;1.70;;;24.60;54.00;;;;;;4994909;28;20540;-71
2023/08/02 03:39:46;;;;;;;2.57;1.80;;;24.50;53.90;;;;;;4994945;28;20176;-72
2023/08/02 03:42:11;;;;;;;3.27;2.30;;;24.60;54.00;;;;;;4995041;28;20165;-72
2023/08/02 03:44:37;;;;;;;2.17;1.40;;;24.60;54.00;;;;;;4994661;28;20674;-72
2023/08/02 03:47:03;;;;;;;1.80;1.70;;;24.60;54.00;;;;;;4994980;28;20542;-73
2023/08/02 03:49:29;;;;;;;2.40;1.83;;;24.60;54.00;;;;;;4977429;28;20260;-72
2023/08/02 03:51:54;;;;;;;2.03;1.83;;;24.60;54.00;;;;;;4977542;28;20185;-72
2023/08/02 03:54:20;;;;;;;3.30;1.60;;;24.60;54.00;;;;;;4994584;28;20609;-72
2023/08/02 03:56:45;;;;;;;2.80;1.83;;;24.60;54.00;;;;;;4994573;28;20211;-72
2023/08/02 03:59:11;;;;;;;4.20;2.00;;;24.60;53.90;;;;;;4994768;28;20272;-73
2023/08/02 04:01:37;;;;;;;2.27;1.80;;;24.60;53.90;;;;;;4994478;28;20568;-72
2023/08/02 04:04:02;;;;;;;2.20;1.70;;;24.60;54.00;;;;;;4976912;28;20193;-72
2023/08/02 04:06:28;;;;;;;3.20;1.87;;;24.60;53.90;;;;;;4994264;28;20204;-73
2023/08/02 04:08:53;;;;;;;2.83;1.50;;;24.60;53.90;;;;;;4993804;28;20696;-72
2023/08/02 04:11:19;;;;;;;2.37;1.30;;;24.60;53.90;;;;;;4994102;28;20173;-71
2023/08/02 04:13:44;;;;;;;2.07;1.50;;;24.60;53.90;;;;;;4994180;28;20173;-72
2023/08/02 04:16:10;;;;;;;2.20;1.80;;;24.60;53.90;;;;;;4994517;28;20184;-72
2023/08/02 04:18:36;;;;;;;1.73;1.40;;;24.60;53.90;;;;;;4994111;28;20201;-72
2023/08/02 04:21:01;;;;;;;1.70;1.50;;;24.60;53.90;;;;;;4994082;28;20236;-71
2023/08/02 04:23:27;;;;;;;1.70;1.53;;;24.60;53.90;;;;;;4993967;28;20169;-73
2023/08/02 04:25:52;;;;;;;2.33;1.80;;;24.60;53.90;;;;;;4993817;28;20196;-71
2023/08/02 04:28:18;;;;;;;2.17;1.60;;;24.60;54.00;;;;;;4976410;28;20173;-72
2023/08/02 04:30:52;;;;;;;2.43;1.80;;;24.60;54.00;;;;;;4993754;28;20177;-72
2023/08/02 04:33:18;;;;;;;1.60;1.40;;;24.60;53.90;;;;;;4993804;28;20244;-72
2023/08/02 04:35:43;;;;;;;1.87;1.50;;;24.60;54.00;;;;;;4993607;28;21020;-72
2023/08/02 04:38:09;;;;;;;2.93;1.80;;;24.60;54.00;;;;;;4993897;28;20408;-72
2023/08/02 04:40:38;;;;;;;2.00;1.80;;;24.60;54.00;;;;;;4993587;28;20173;-72
2023/08/02 04:43:04;;;;;;;1.70;1.60;;;24.60;54.00;;;;;;4993753;28;20268;-72
2023/08/02 04:45:29;;;;;;;1.60;1.27;;;24.60;54.00;;;;;;4993257;28;20563;-72
2023/08/02 04:47:55;;;;;;;3.40;1.50;;;24.60;54.00;;;;;;4993513;28;20219;-73
2023/08/02 04:50:21;;;;;;;1.63;1.53;;;24.60;54.00;;;;;;4993441;28;20658;-71
2023/08/02 04:52:46;;;;;;;1.60;1.50;;;24.60;54.00;;;;;;4993319;28;20597;-71
2023/08/02 04:55:12;;;;;;;2.10;1.60;;;24.60;54.00;;;;;;4993386;28;20243;-72
2023/08/02 04:57:37;;;;;;;2.00;1.77;;;24.60;54.00;;;;;;4993329;28;20224;-72
2023/08/02 05:00:04;;;;;;;2.00;1.43;;;24.60;54.00;;;;;;4993323;28;20268;-71
2023/08/02 05:02:34;;;;;;;2.87;1.87;;;24.60;54.00;;;;;;4975481;28;20276;-71
2023/08/02 05:05:00;;;;;;;2.20;2.00;;;24.60;54.00;;;;;;4993253;28;20432;-72
2023/08/02 05:07:26;;;;;;;2.10;1.40;;;24.60;54.10;;;;;;4993318;28;20412;-72
2023/08/02 05:09:51;;;;;;;2.17;1.33;;;24.60;54.00;;;;;;4993097;28;20487;-72
2023/08/02 05:12:17;;;;;;;1.80;1.60;;;24.60;54.00;;;;;;4992899;28;20180;-71
2023/08/02 05:14:43;;;;;;;1.57;1.47;;;24.60;54.00;;;;;;4992934;28;20193;-72
2023/08/02 05:17:08;;;;;;;2.20;1.80;;;24.60;54.00;;;;;;4993109;28;20630;-72
2023/08/02 05:19:34;;;;;;;1.97;1.70;;;24.60;54.10;;;;;;4993177;28;20546;-70
2023/08/02 05:22:00;;;;;;;1.70;1.50;;;24.60;54.00;;;;;;4991916;28;20193;-70
2023/08/02 05:24:26;;;;;;;1.70;1.43;;;24.60;54.00;;;;;;4992806;28;21005;-71
2023/08/02 05:26:51;;;;;;;2.30;1.53;;;24.60;54.10;;;;;;4992505;28;20235;-72
2023/08/02 05:29:17;;;;;;;2.10;1.60;;;24.60;54.10;;;;;;4992819;28;20630;-71
2023/08/02 05:31:42;;;;;;;2.57;1.40;;;24.60;54.10;;;;;;4992769;28;20671;-71
2023/08/02 05:34:08;;;;;;;1.93;1.43;;;24.60;54.10;;;;;;4992712;28;20188;-71
2023/08/02 05:36:33;;;;;;;1.67;1.37;;;24.60;54.00;;;;;;4992661;28;20244;-73
2023/08/02 05:38:59;;;;;;;1.87;1.63;;;24.60;54.00;;;;;;4992947;28;20187;-72
2023/08/02 05:41:25;;;;;;;1.90;1.50;;;24.60;54.00;;;;;;4992910;28;20185;-71
2023/08/02 05:43:50;;;;;;;1.43;1.33;;;24.60;54.00;;;;;;4992865;28;20169;-72
2023/08/02 05:46:16;;;;;;;2.20;1.60;;;24.60;54.00;;;;;;4974632;28;20259;-72
2023/08/02 05:48:41;;;;;;;4.70;1.63;;;24.60;54.10;;;;;;4992618;28;20653;-72
2023/08/02 05:51:07;;;;;;;2.20;1.60;;;24.60;54.10;;;;;;4992918;28;20239;-72
2023/08/02 05:53:32;;;;;;;1.53;1.43;;;24.60;54.00;;;;;;4992889;28;20180;-72
2023/08/02 05:55:58;;;;;;;2.13;1.70;;;24.60;54.00;;;;;;4992726;28;20196;-72
2023/08/02 05:58:24;;;;;;;2.10;1.50;;;24.60;54.00;;;;;;4992680;28;20212;-72
2023/08/02 06:00:50;;;;;;;2.13;1.77;;;24.60;54.00;;;;;;4992619;28;20192;-72
2023/08/02 06:03:16;;;;;;;1.87;1.70;;;24.60;54.00;;;;;;4992909;28;20412;-72
2023/08/02 06:05:41;;;;;;;2.50;1.90;;;24.60;54.00;;;;;;4992466;28;20867;-72
2023/08/02 06:08:07;;;;;;;2.13;1.93;;;24.60;54.00;;;;;;4992560;28;20188;-71
2023/08/02 06:10:32;;;;;;;2.20;1.90;;;24.60;54.00;;;;;;4992606;28;20224;-72
2023/08/02 06:12:58;;;;;;;1.80;1.70;;;24.60;54.00;;;;;;4992626;28;20656;-71
2023/08/02 06:15:24;;;;;;;2.13;1.87;;;24.60;54.00;;;;;;4992466;28;20270;-72
2023/08/02 06:17:49;;;;;;;1.60;1.50;;;24.60;54.00;;;;;;4992592;28;20284;-72
2023/08/02 06:20:15;;;;;;;1.70;1.50;;;24.60;54.00;;;;;;4992567;28;20546;-72
2023/08/02 06:22:41;;;;;;;2.17;1.50;;;24.60;54.00;;;;;;4992532;28;20259;-72
2023/08/02 06:25:07;;;;;;;3.10;1.90;;;24.60;54.00;;;;;;4992363;28;20554;-70
2023/08/02 06:27:33;;;;;;;2.57;2.13;;;24.60;54.00;;;;;;4992452;28;20550;-70
2023/08/02 06:29:58;;;;;;;2.50;2.20;;;24.60;54.00;;;;;;4992524;28;20495;-73
2023/08/02 06:32:24;;;;;;;2.03;1.83;;;24.60;54.00;;;;;;4993419;28;20173;-72
2023/08/02 06:34:50;;;;;;;2.30;2.00;;;24.60;54.00;;;;;;4978970;28;20201;-73
2023/08/02 06:37:15;;;;;;;2.80;1.60;;;24.60;54.00;;;;;;4996309;28;20173;-74
2023/08/02 06:39:41;;;;;;;2.50;2.07;;;24.60;54.00;;;;;;4996334;28;20240;-73
2023/08/02 06:42:07;;;;;;;2.27;1.97;;;24.60;53.90;;;;;;4996267;28;20177;-73
2023/08/02 06:44:32;;;;;;;1.80;1.70;;;24.60;53.90;;;;;;4978771;28;20732;-73
2023/08/02 06:46:58;;;;;;;2.87;1.60;;;24.60;54.00;;;;;;4996094;28;20204;-72
2023/08/02 06:49:24;;;;;;;2.77;1.83;;;24.60;54.00;;;;;;4996194;28;20185;-71
2023/08/02 06:51:49;;;;;;;2.23;1.70;;;24.50;53.90;;;;;;4996031;28;20183;-73
2023/08/02 06:54:15;;;;;;;2.27;1.73;;;24.50;53.90;;;;;;4995975;28;20192;-72
2023/08/02 06:56:41;;;;;;;4.23;1.63;;;24.60;54.10;;;;;;4978617;28;20279;-72
2023/08/02 06:59:07;;;;;;;2.30;2.10;;;24.50;54.00;;;;;;4996094;28;20184;-71
2023/08/02 07:01:32;;;;;;;2.13;1.70;;;24.50;54.00;;;;;;4978547;28;20404;-71
2023/08/02 07:03:58;;;;;;;1.90;1.70;;;24.60;54.00;;;;;;4995814;28;20566;-71
2023/08/02 07:06:23;;;;;;;2.23;1.63;;;24.60;54.00;;;;;;4995833;28;20227;-71
2023/08/02 07:08:49;;;;;;;2.07;1.70;;;24.60;53.90;;;;;;4994863;28;20197;-71
2023/08/02 07:11:15;;;;;;;2.47;1.60;;;24.60;53.90;;;;;;4995618;28;20177;-72
2023/08/02 07:13:45;;;;;;;2.53;1.67;;;24.60;53.90;;;;;;4995623;28;20639;-72
2023/08/02 07:16:11;;;;;;;2.00;1.57;;;24.60;53.90;;;;;;4995623;28;20239;-72
2023/08/02 07:18:37;;;;;;;4.17;1.93;;;24.60;53.80;;;;;;4995610;28;20454;-72
2023/08/02 07:21:07;;;;;;;2.40;1.70;;;24.60;53.80;;;;;;4995746;28;20420;-72
2023/08/02 07:23:33;;;;;;;1.60;1.50;;;24.60;53.80;;;;;;4995400;28;20563;-71
2023/08/02 07:25:59;;;;;;;2.50;1.70;;;24.60;53.80;;;;;;4995561;28;20456;-71
2023/08/02 07:28:25;;;;;;;1.63;1.50;;;24.60;53.90;;;;;;4995386;28;20420;-71
2023/08/02 07:30:50;;;;;;;2.17;1.63;;;24.60;53.80;;;;;;4995291;28;20185;-70
2023/08/02 07:33:16;;;;;;;2.30;1.40;;;24.60;53.80;;;;;;4995337;28;20173;-72
2023/08/02 07:35:41;;;;;;;2.23;1.70;;;24.60;53.70;;;;;;4977702;28;20205;-72
2023/08/02 07:38:07;;;;;;;1.83;1.57;;;24.60;53.80;;;;;;4995478;28;20272;-72
2023/08/02 07:40:33;;;;;;;1.63;1.20;;;24.60;53.70;;;;;;4995111;28;20634;-72
2023/08/02 07:42:58;;;;;;;3.07;1.43;;;24.70;53.80;;;;;;4995154;28;20185;-71
2023/08/02 07:45:24;;;;;;;1.90;1.70;;;24.60;53.70;;;;;;4976238;28;20585;-71
2023/08/02 07:47:50;;;;;;;2.70;2.07;;;24.70;53.80;;;;;;4994954;28;20236;-70
2023/08/02 07:50:15;;;;;;;2.27;1.60;;;24.70;53.80;;;;;;4994969;28;20173;-71
2023/08/02 07:52:41;;;;;;;3.37;2.10;;;24.70;53.80;;;;;;4992911;28;20192;-71
2023/08/02 07:55:07;;;;;;;2.17;1.80;;;24.70;53.80;;;;;;4987803;28;20236;-71
2023/08/02 07:57:34;;;;;;;2.23;1.63;;;24.70;53.80;;;;;;4987143;28;20221;-71
2023/08/02 08:00:00;;;;;;;2.90;1.90;;;24.70;53.70;;;;;;4975463;28;20469;-71
2023/08/02 08:02:26;;;;;;;2.77;1.50;;;24.70;53.70;;;;;;4975266;28;20840;-71
2023/08/02 08:04:52;;;;;;;2.20;1.60;;;24.70;53.70;;;;;;4975172;28;20240;-70
2023/08/02 08:07:18;;;;;;;1.77;1.50;;;24.70;53.70;;;;;;4975297;28;20310;-71
2023/08/02 08:09:43;;;;;;;1.87;1.70;;;24.70;53.60;;;;;;4979804;28;20474;-74
2023/08/02 08:12:09;;;;;;;1.80;1.70;;;24.70;53.60;;;;;;4976696;28;20204;-67
2023/08/02 08:14:35;;;;;;;2.53;2.00;;;24.70;53.70;;;;;;4994785;28;20197;-69
2023/08/02 08:17:01;;;;;;;2.60;2.03;;;24.70;53.70;;;;;;4977028;28;20176;-69
2023/08/02 08:19:27;;;;;;;3.30;2.20;;;24.80;53.80;;;;;;4994467;28;20412;-69
2023/08/02 08:21:53;;;;;;;3.20;1.50;;;24.80;53.80;;;;;;4994436;28;20443;-69
2023/08/02 08:24:19;;;;;;;2.47;1.43;;;24.80;53.70;;;;;;4988651;28;20436;-69
2023/08/02 08:26:44;;;;;;;3.43;2.27;;;24.80;53.70;;;;;;4987352;28;20198;-71
2023/08/02 08:29:10;;;;;;;3.13;2.03;;;24.80;53.70;;;;;;4974872;28;20576;-70
2023/08/02 08:31:36;;;;;;;2.87;1.60;;;24.80;53.70;;;;;;4974805;28;20202;-69
2023/08/02 08:34:02;;;;;;;3.10;2.13;;;24.80;53.70;;;;;;4974730;28;20199;-68
2023/08/02 08:36:29;;;;;;;2.70;1.90;;;24.80;53.80;;;;;;4974795;28;20507;-69
2023/08/02 08:38:58;;;;;;;2.67;1.90;;;24.80;53.80;;;;;;4974682;28;20413;-71
2023/08/02 08:41:23;;;;;;;4.40;1.63;;;24.80;53.80;;;;;;4974620;28;20516;-72
2023/08/02 08:43:49;;;;;;;2.60;1.70;;;24.80;53.80;;;;;;4974489;28;20499;-72
2023/08/02 08:46:15;;;;;;;3.80;2.33;;;24.80;53.80;;;;;;4974425;28;20189;-71
2023/08/02 08:48:41;;;;;;;2.40;1.80;;;24.80;53.70;;;;;;4974528;28;20604;-72
2023/08/02 08:51:10;;;;;;;4.10;1.73;;;24.80;53.70;;;;;;4974431;28;20405;-71
2023/08/02 08:53:39;;;;;;;2.20;1.87;;;24.80;53.70;;;;;;4974082;28;20440;-71
2023/08/02 08:56:04;;;;;;;4.17;1.90;;;24.80;53.70;;;;;;4956599;28;20436;-72
2023/08/02 08:58:35;;;;;;;2.03;1.50;;;24.80;53.70;;;;;;4974253;28;20416;-71
2023/08/02 09:01:03;;;;;;;2.50;1.83;;;24.80;53.70;;;;;;4974310;28;20177;-72
2023/08/02 09:03:29;;;;;;;2.10;1.90;;;24.80;53.70;;;;;;4974247;28;20542;-71
2023/08/02 09:06:02;;;;;;;3.03;2.10;;;24.80;53.70;;;;;;4974290;28;20508;-72
2023/08/02 09:08:29;;;;;;;3.90;1.90;;;24.80;53.70;;;;;;4974149;28;20154;-72
2023/08/02 09:10:54;;;;;;;3.53;2.43;;;24.80;53.70;;;;;;4973613;28;20420;-72
2023/08/02 09:13:24;;;;;;;6.33;1.60;;;24.80;53.70;;;;;;4974021;28;20417;-72
2023/08/02 09:16:08;;;;;;;3.03;2.07;;;24.80;53.80;;;;;;4973931;28;20280;-70
2023/08/02 09:18:42;;;;;;;2.27;2.00;;;24.90;53.80;;;;;;4974174;28;20440;-71
2023/08/02 09:21:09;;;;;;;3.60;2.20;;;24.80;54.30;;;;;;4973860;28;20405;-70
2023/08/02 09:23:35;;;;;;;2.13;1.90;;;24.80;53.70;;;;;;4973758;28;20495;-70
2023/08/02 09:26:18;;;;;;;4.50;2.23;;;24.90;53.80;;;;;;4972874;28;20591;-71
2023/08/02 09:29:03;;;;;;;4.43;1.77;;;24.90;53.70;;;;;;4973853;28;20170;-72
2023/08/02 09:31:31;;;;;;;2.63;1.57;;;24.90;53.80;;;;;;4973870;28;20788;-69
2023/08/02 09:33:57;;;;;;;3.97;2.03;;;24.80;53.70;;;;;;4973569;28;20852;-71
2023/08/02 09:36:27;;;;;;;2.47;1.83;;;24.90;53.80;;;;;;4973583;28;20417;-69
2023/08/02 09:39:04;;;;;;;2.10;1.80;;;24.90;54.40;;;;;;4973660;28;20413;-70
2023/08/02 09:41:30;;;;;;;3.00;2.20;;;24.90;53.80;;;;;;4957580;28;20433;-71
2023/08/02 09:43:57;;;;;;;4.50;2.20;;;24.90;53.80;;;;;;4973669;28;20802;-67
2023/08/02 09:46:29;;;;;;;2.67;1.93;;;24.90;53.90;;;;;;4973029;28;20444;-68
2023/08/02 09:48:59;;;;;;;3.07;2.30;;;24.90;53.90;;;;;;4972936;28;20420;-69
2023/08/02 09:51:41;;;;;;;3.20;2.17;;;24.90;53.90;;;;;;4973684;28;20480;-71
2023/08/02 09:54:08;;;;;;;2.60;1.90;;;24.90;53.90;;;;;;4973379;28;20440;-71
2023/08/02 09:56:36;;;;;;;3.13;2.10;;;24.90;53.90;;;;;;4973346;28;20456;-71
2023/08/02 09:59:03;;;;;;;3.03;2.10;;;24.90;53.90;;;;;;4973358;28;20413;-70
2023/08/02 10:01:30;;;;;;;2.80;2.30;;;24.90;53.90;;;;;;4973579;28;20459;-71
2023/08/02 10:03:58;;;;;;;3.57;2.63;;;24.90;53.80;;;;;;4973560;28;20463;-69
2023/08/02 10:06:28;;;;;;;3.03;2.10;;;24.90;53.90;;;;;;4973149;28;21024;-70
2023/08/02 10:08:59;;;;;;;2.87;2.50;;;24.90;53.80;;;;;;4973050;28;20413;-68
2023/08/02 10:11:25;;;;;;;3.53;2.30;;;24.90;53.90;;;;;;4973293;28;20389;-70
2023/08/02 10:13:53;;;;;;;2.83;2.40;;;24.90;53.90;;;;;;4973422;28;20412;-68
2023/08/02 10:16:20;;;;;;;3.00;2.03;;;24.90;53.90;;;;;;4973241;28;20489;-70
2023/08/02 10:18:47;;;;;;;4.00;2.50;;;24.90;53.90;;;;;;4973153;28;20413;-69
2023/08/02 10:21:15;;;;;;;4.10;2.13;;;24.90;53.90;;;;;;4973190;28;20420;-72
2023/08/02 10:23:42;;;;;;;2.57;2.10;;;24.90;53.90;;;;;;4973030;28;20428;-70
2023/08/02 10:26:08;;;;;;;2.80;1.97;;;24.90;53.90;;;;;;4972980;28;20452;-72
2023/08/02 10:28:34;;;;;;;2.47;1.87;;;24.90;53.90;;;;;;4973064;28;20409;-72
2023/08/02 10:31:02;;;;;;;2.93;1.80;;;25.00;54.00;;;;;;4973121;28;20170;-73
2023/08/02 10:33:28;;;;;;;4.80;3.00;;;25.00;54.00;;;;;;4955686;28;20444;-72
2023/08/02 10:35:58;;;;;;;3.13;2.27;;;25.00;54.00;;;;;;4972996;28;20496;-72
2023/08/02 10:38:37;;;;;;;3.27;2.80;;;25.00;54.00;;;;;;4972819;28;20184;-73
2023/08/02 10:41:14;;;;;;;3.90;2.60;;;25.00;54.00;;;;;;4972986;28;20488;-72
2023/08/02 10:43:54;;;;;;;2.80;1.93;;;25.00;54.00;;;;;;4972965;28;20398;-72
2023/08/02 10:46:27;;;;;;;2.70;2.07;;;25.00;54.00;;;;;;4972870;28;20456;-72
2023/08/02 10:49:16;;;;;;;2.30;2.03;;;25.00;54.00;;;;;;4972914;28;20432;-73
2023/08/02 10:51:43;;;;;;;3.37;2.20;;;25.00;54.00;;;;;;4972775;28;20790;-73
2023/08/02 10:54:21;;;;;;;3.60;1.90;;;25.00;54.00;;;;;;4972797;28;20437;-73
2023/08/02 10:56:57;;;;;;;2.40;2.00;;;25.00;54.00;;;;;;4971991;28;20853;-73
2023/08/02 10:59:22;;;;;;;3.97;2.13;;;25.00;54.00;;;;;;4972830;28;20399;-73
2023/08/02 11:02:02;;;;;;;4.73;2.20;;;25.00;54.00;;;;;;4972820;28;20808;-72
2023/08/02 11:04:30;;;;;;;4.00;2.10;;;24.90;53.90;;;;;;4972992;28;20197;-73
2023/08/02 11:07:09;;;;;;;2.20;2.00;;;25.00;54.00;;;;;;4972672;28;21049;-69
2023/08/02 11:09:34;;;;;;;8.33;2.10;;;25.00;54.00;;;;;;4972678;28;20891;-69
2023/08/02 11:12:11;;;;;;;3.50;1.97;;;25.00;54.00;;;;;;4972727;28;20421;-68
2023/08/02 11:14:38;;;;;;;3.90;2.70;;;25.00;54.00;;;;;;4972536;28;20193;-67
2023/08/02 11:17:04;;;;;;;3.20;2.23;;;25.00;54.00;;;;;;4955511;28;20405;-69
2023/08/02 11:19:30;;;;;;;5.03;2.60;;;25.00;54.00;;;;;;4974766;28;20420;-69
2023/08/02 11:21:58;;;;;;;7.03;2.90;;;24.90;54.00;;;;;;4958722;28;20432;-68
2023/08/02 11:24:24;;;;;;;4.53;3.00;;;25.00;54.10;;;;;;4975960;28;20494;-67
2023/08/02 11:26:56;;;;;;;6.47;4.23;;;24.90;54.00;;;;;;4975906;28;20447;-69
2023/08/02 11:29:22;;;;;;;9.53;5.40;;;24.90;54.00;;;;;;4975927;28;20413;-69
2023/08/02 11:31:48;;;;;;;7.40;4.83;;;24.90;54.20;;;;;;4975959;28;20420;-69
2023/08/02 11:34:18;;;;;;;11.20;7.23;;;24.90;54.20;;;;;;4976154;28;20898;-67
2023/08/02 11:36:45;;;;;;;13.57;7.00;;;24.90;54.10;;;;;;4975852;28;20516;-68
2023/08/02 11:39:18;;;;;;;15.87;8.50;;;24.90;54.20;;;;;;4975717;28;20539;-68
2023/08/02 11:41:45;;;;;;;18.47;8.37;;;24.90;54.20;;;;;;4975900;28;20784;-68
2023/08/02 11:44:18;;;;;;;17.50;8.17;;;24.90;54.20;;;;;;4975516;28;20444;-67
2023/08/02 11:46:54;;;;;;;14.87;8.67;;;24.90;54.20;;;;;;4975770;28;20496;-68
2023/08/02 11:49:20;;;;;;;16.73;11.03;;;24.90;54.20;;;;;;4975617;28;20393;-68
2023/08/02 11:51:45;;;;;;;22.57;9.77;;;24.90;54.30;;;;;;4975569;28;20917;-69
2023/08/02 11:54:11;;;;;;;16.37;9.13;;;24.90;54.30;;;;;;4958022;28;20444;-67
2023/08/02 11:56:37;;;;;;;20.80;9.77;;;24.90;54.30;;;;;;4975382;28;20208;-69
2023/08/02 11:59:04;;;;;;;14.43;9.03;;;24.90;54.40;;;;;;4975372;28;20921;-69
2023/08/02 12:01:29;;;;;;;18.23;8.90;;;24.90;54.40;;;;;;4975061;28;20670;-68
2023/08/02 12:04:00;;;;;;;14.20;9.10;;;24.90;54.50;;;;;;4975213;28;20468;-66
2023/08/02 12:06:27;;;;;;;24.67;9.20;;;24.90;54.50;;;;;;4975543;28;20229;-68
2023/08/02 12:08:58;;;;;;;17.80;8.50;;;24.90;54.60;;;;;;4975174;28;20425;-67
2023/08/02 12:11:24;;;;;;;17.00;8.33;;;24.90;54.60;;;;;;4975144;28;20386;-69
2023/08/02 12:13:50;;;;;;;13.40;6.43;;;24.80;54.40;;;;;;4975061;28;20409;-68
2023/08/02 12:16:17;;;;;;;15.37;8.20;;;24.80;54.40;;;;;;4957483;28;20496;-68
2023/08/02 12:18:50;;;;;;;16.23;8.80;;;24.80;54.40;;;;;;4974075;28;20420;-67
2023/08/02 12:21:16;;;;;;;23.77;9.50;;;24.80;54.50;;;;;;4957591;28;20421;-67
2023/08/02 12:23:42;;;;;;;16.87;7.87;;;24.80;54.60;;;;;;4974803;28;20926;-68
2023/08/02 12:26:08;;;;;;;16.10;8.33;;;24.80;54.60;;;;;;4975142;28;20457;-68
2023/08/02 12:28:44;;;;;;;14.03;7.80;;;24.80;54.60;;;;;;4974868;28;20253;-67
2023/08/02 12:31:10;;;;;;;16.00;9.00;;;24.80;54.60;;;;;;4974669;28;20544;-66
2023/08/02 12:33:35;;;;;;;14.37;7.50;;;24.80;54.60;;;;;;4974466;28;20413;-68
2023/08/02 12:36:01;;;;;;;20.80;8.50;;;24.80;54.70;;;;;;4974748;28;20642;-68
2023/08/02 12:38:29;;;;;;;12.10;7.30;;;24.80;54.70;;;;;;4974676;28;20174;-67
2023/08/02 12:40:58;;;;;;;12.27;7.80;;;24.80;54.70;;;;;;4974569;28;20194;-68
2023/08/02 12:43:25;;;;;;;14.97;7.63;;;24.80;54.60;;;;;;4974493;28;20413;-69